Time;durP1;ratioP1;P1;durP2;ratioP2;P2;SDS_P1;SDS_P2;PMS_P1;PMS_P2;Temp;Humidity;BMP_temperature;BMP_pressure;BME280_temperature;BME280_humidity;BME280_pressure;Samples;Min_cycle;Max_cycle;Signal;HPM_P1;HPM_P2
2021/05/02 00:00:41;;;;;;;4.22;3.53;;;7.00;99.90;;;;;;6216852;28;19975;-80
2021/05/02 00:03:42;;;;;;;4.43;3.55;;;7.10;99.90;;;;;;6218629;28;20044;-79
2021/05/02 00:06:42;;;;;;;4.90;3.83;;;6.60;99.90;;;;;;6216742;28;20030;-81
2021/05/02 00:09:43;;;;;;;4.65;3.92;;;6.70;99.90;;;;;;6216689;28;20045;-79
2021/05/02 00:12:44;;;;;;;6.32;4.55;;;6.70;99.90;;;;;;6200684;28;20030;-79
2021/05/02 00:15:45;;;;;;;5.25;4.20;;;6.70;99.90;;;;;;6216445;28;20028;-79
2021/05/02 00:18:46;;;;;;;10.20;8.93;;;6.70;99.90;;;;;;6216823;28;20030;-79
2021/05/02 00:21:47;;;;;;;8.65;6.97;;;6.60;99.90;;;;;;6216706;28;20535;-80
2021/05/02 00:24:48;;;;;;;14.10;10.35;;;6.90;99.90;;;;;;6217892;28;20030;-79
2021/05/02 00:27:49;;;;;;;16.00;12.65;;;7.10;99.90;;;;;;6221238;28;20054;-79
2021/05/02 00:30:49;;;;;;;14.07;10.27;;;6.60;99.90;;;;;;6204788;28;20452;-79
2021/05/02 00:33:50;;;;;;;14.35;10.25;;;7.20;99.90;;;;;;6220798;28;20080;-79
2021/05/02 00:36:50;;;;;;;14.60;11.63;;;6.80;99.90;;;;;;6221154;28;20030;-79
2021/05/02 00:39:51;;;;;;;13.32;10.82;;;7.40;99.90;;;;;;6221058;28;20036;-79
2021/05/02 00:42:53;;;;;;;14.82;11.95;;;7.10;99.90;;;;;;6220980;28;20505;-80
2021/05/02 00:46:11;;;;;;;15.98;12.40;;;6.70;99.90;;;;;;6221431;28;20061;-79
2021/05/02 00:49:17;;;;;;;17.75;12.98;;;6.80;99.90;;;;;;6220718;28;20127;-80
2021/05/02 00:52:27;;;;;;;19.77;13.98;;;6.60;99.90;;;;;;6220658;28;20096;-79
2021/05/02 00:55:31;;;;;;;22.67;14.63;;;6.80;99.90;;;;;;6204910;28;20453;-80
2021/05/02 00:58:40;;;;;;;20.70;15.15;;;6.60;99.90;;;;;;6220669;28;20176;-80
2021/05/02 01:01:44;;;;;;;21.55;16.08;;;6.60;99.90;;;;;;6220365;28;20061;-79
2021/05/02 01:04:45;;;;;;;19.80;16.42;;;6.70;99.90;;;;;;6220507;28;20022;-78
2021/05/02 01:07:46;;;;;;;25.70;16.95;;;6.80;99.90;;;;;;6203563;28;20038;-79
2021/05/02 01:10:47;;;;;;;22.00;17.48;;;6.70;99.90;;;;;;6203780;28;20038;-79
2021/05/02 01:13:53;;;;;;;24.08;18.15;;;6.50;99.90;;;;;;6220541;28;20083;-80
2021/05/02 01:16:57;;;;;;;23.30;18.58;;;6.50;99.90;;;;;;6219990;28;20048;-80
2021/05/02 01:19:58;;;;;;;22.35;17.67;;;6.80;99.90;;;;;;6220170;28;20033;-80
2021/05/02 01:23:03;;;;;;;23.92;17.67;;;6.50;99.90;;;;;;6219939;28;20042;-79
2021/05/02 01:26:03;;;;;;;23.35;17.50;;;6.50;99.90;;;;;;6203331;28;20046;-81
2021/05/02 01:29:04;;;;;;;20.77;16.85;;;6.60;99.90;;;;;;6219776;28;20096;-80
2021/05/02 01:32:04;;;;;;;24.13;18.00;;;6.60;99.90;;;;;;6219658;28;20026;-79
2021/05/02 01:35:05;;;;;;;23.48;18.60;;;6.60;99.90;;;;;;6219871;28;20065;-79
2021/05/02 01:38:06;;;;;;;23.20;17.45;;;6.60;99.90;;;;;;6218584;28;20038;-80
2021/05/02 01:41:07;;;;;;;23.50;17.35;;;6.90;99.90;;;;;;6219828;28;20473;-80
2021/05/02 01:44:07;;;;;;;21.48;17.23;;;7.70;99.90;;;;;;6220060;28;20211;-80
2021/05/02 01:47:11;;;;;;;23.17;17.67;;;7.00;99.90;;;;;;6219173;28;20037;-81
2021/05/02 01:50:12;;;;;;;23.77;17.60;;;7.30;99.90;;;;;;6219340;28;20030;-79
2021/05/02 01:53:13;;;;;;;24.80;18.08;;;6.60;99.90;;;;;;6219136;28;20086;-80
2021/05/02 01:56:15;;;;;;;25.23;18.90;;;6.40;99.90;;;;;;6219270;28;20472;-79
2021/05/02 01:59:15;;;;;;;25.80;18.52;;;6.30;99.90;;;;;;6202485;28;20029;-81
2021/05/02 02:02:16;;;;;;;24.17;18.30;;;6.60;99.90;;;;;;6218982;28;20141;-79
2021/05/02 02:05:17;;;;;;;27.45;19.55;;;6.90;99.90;;;;;;6218996;28;20072;-79
2021/05/02 02:08:18;;;;;;;25.20;19.38;;;;;;;;;;6202096;28;20038;-79
2021/05/02 02:11:20;;;;;;;24.58;19.30;;;6.40;99.90;;;;;;6218934;28;20037;-79
2021/05/02 02:14:22;;;;;;;26.53;19.23;;;6.50;99.90;;;;;;6201994;28;20033;-81
2021/05/02 02:17:23;;;;;;;33.70;19.67;;;6.60;99.90;;;;;;6201957;28;20464;-80
2021/05/02 02:20:25;;;;;;;25.52;19.85;;;;;;;;;;6202419;28;20040;-79
2021/05/02 02:23:28;;;;;;;26.52;20.50;;;6.50;99.90;;;;;;6202738;28;20069;-81
2021/05/02 02:26:47;;;;;;;25.83;19.10;;;6.40;99.90;;;;;;6218533;28;20068;-79
2021/05/02 02:29:49;;;;;;;24.58;18.33;;;;;;;;;;6203841;28;20037;-79
2021/05/02 02:32:49;;;;;;;25.02;19.27;;;6.40;99.90;;;;;;6218168;28;20033;-79
2021/05/02 02:35:51;;;;;;;25.23;18.95;;;6.50;99.90;;;;;;6202256;28;20376;-79
2021/05/02 02:38:52;;;;;;;25.50;18.03;;;6.30;99.90;;;;;;6218310;28;20471;-80
2021/05/02 02:41:52;;;;;;;25.17;19.27;;;6.50;99.90;;;;;;6218394;28;20033;-79
2021/05/02 02:44:57;;;;;;;24.77;20.20;;;6.50;99.90;;;;;;6218114;28;20059;-79
2021/05/02 02:47:58;;;;;;;27.02;17.88;;;6.90;99.90;;;;;;6200987;28;20099;-79
2021/05/02 02:50:59;;;;;;;26.10;19.85;;;7.20;99.90;;;;;;6218233;28;20121;-80
2021/05/02 02:54:00;;;;;;;27.40;19.65;;;6.70;99.90;;;;;;6217849;28;20030;-80
2021/05/02 02:57:00;;;;;;;25.85;19.70;;;6.40;99.90;;;;;;6217958;28;20526;-79
2021/05/02 03:00:01;;;;;;;26.75;18.88;;;8.40;99.90;;;;;;6217616;28;20099;-80
2021/05/02 03:03:07;;;;;;;32.85;23.65;;;6.40;99.90;;;;;;6217456;28;20108;-79
2021/05/02 03:06:08;;;;;;;28.00;20.80;;;6.90;99.90;;;;;;6217583;28;20513;-79
2021/05/02 03:09:09;;;;;;;27.13;19.88;;;6.30;99.90;;;;;;6201374;28;20119;-79
2021/05/02 03:12:11;;;;;;;30.35;22.08;;;6.20;99.90;;;;;;6201212;28;20051;-79
2021/05/02 03:15:11;;;;;;;30.70;21.98;;;6.30;99.90;;;;;;6217754;28;20083;-79
2021/05/02 03:18:13;;;;;;;29.90;20.95;;;6.40;99.90;;;;;;6201294;28;20456;-80
2021/05/02 03:21:14;;;;;;;28.27;20.95;;;6.40;99.90;;;;;;6217134;28;20030;-80
2021/05/02 03:24:14;;;;;;;24.85;18.80;;;6.60;99.90;;;;;;6217038;28;20041;-79
2021/05/02 03:27:22;;;;;;;25.88;17.92;;;6.80;99.90;;;;;;6217373;28;20033;-79
2021/05/02 03:30:23;;;;;;;25.08;18.50;;;6.40;99.90;;;;;;6201651;28;20488;-79
2021/05/02 03:33:23;;;;;;;22.40;17.63;;;6.30;99.90;;;;;;6200925;28;20651;-79
2021/05/02 03:36:45;;;;;;;22.50;17.10;;;6.90;99.90;;;;;;6217594;28;20079;-78
2021/05/02 03:39:49;;;;;;;23.42;17.63;;;6.40;99.90;;;;;;6217634;28;20025;-80
2021/05/02 03:42:50;;;;;;;24.77;18.63;;;6.40;99.90;;;;;;6217553;28;20037;-79
2021/05/02 03:45:50;;;;;;;26.27;19.92;;;6.40;99.90;;;;;;6217532;28;20372;-80
2021/05/02 03:49:01;;;;;;;26.73;19.13;;;6.50;99.90;;;;;;6201028;28;20088;-80
2021/05/02 03:52:02;;;;;;;24.95;17.80;;;6.60;99.90;;;;;;6217556;28;20072;-79
2021/05/02 03:55:03;;;;;;;25.92;19.48;;;6.60;99.90;;;;;;6217384;28;20029;-80
2021/05/02 03:58:11;;;;;;;27.33;20.10;;;6.30;99.90;;;;;;6218312;28;20034;-81
2021/05/02 04:01:11;;;;;;;25.30;19.58;;;6.10;99.90;;;;;;6221124;28;20054;-81
2021/05/02 04:04:13;;;;;;;24.95;20.02;;;6.30;99.90;;;;;;6221867;28;20068;-81
2021/05/02 04:07:14;;;;;;;27.85;20.00;;;7.20;99.90;;;;;;6222306;28;20452;-79
2021/05/02 04:10:14;;;;;;;28.75;20.83;;;6.90;99.90;;;;;;6221728;28;20065;-80
2021/05/02 04:13:15;;;;;;;27.48;20.73;;;;;;;;;;6222127;28;20526;-79
2021/05/02 04:16:16;;;;;;;28.05;20.13;;;6.40;99.90;;;;;;6222397;28;20554;-79
2021/05/02 04:19:17;;;;;;;26.83;21.25;;;6.30;99.90;;;;;;6222203;28;20411;-79
2021/05/02 04:22:18;;;;;;;29.80;20.90;;;6.50;99.90;;;;;;6222756;28;20025;-80
2021/05/02 04:25:18;;;;;;;27.70;20.27;;;7.00;99.90;;;;;;6221404;28;20125;-79
2021/05/02 04:28:19;;;;;;;27.42;20.48;;;6.50;99.90;;;;;;6221387;28;20629;-80
2021/05/02 04:31:19;;;;;;;28.15;21.38;;;6.90;99.90;;;;;;6221042;28;20030;-79
2021/05/02 04:34:21;;;;;;;28.92;20.63;;;6.80;99.90;;;;;;6221746;28;20456;-79
2021/05/02 04:37:21;;;;;;;28.90;21.70;;;6.50;99.90;;;;;;6204479;28;20033;-81
2021/05/02 04:40:22;;;;;;;29.40;21.60;;;6.50;99.90;;;;;;6222276;28;20034;-79
2021/05/02 04:43:22;;;;;;;30.25;21.20;;;6.40;99.90;;;;;;6221221;28;20388;-79
2021/05/02 04:46:23;;;;;;;27.10;20.25;;;7.50;99.90;;;;;;6220833;28;20108;-79
2021/05/02 04:49:30;;;;;;;27.55;19.77;;;6.50;99.90;;;;;;6220906;28;20034;-79
2021/05/02 04:52:30;;;;;;;27.35;20.08;;;6.50;99.90;;;;;;6220709;28;20034;-80
2021/05/02 04:55:31;;;;;;;40.88;29.42;;;6.80;99.90;;;;;;6221012;28;20056;-79
2021/05/02 04:58:31;;;;;;;29.00;23.20;;;7.00;99.90;;;;;;6205062;28;20061;-80
2021/05/02 05:01:33;;;;;;;29.95;21.27;;;6.50;99.90;;;;;;6222105;28;20057;-79
2021/05/02 05:04:33;;;;;;;29.50;21.00;;;6.50;99.90;;;;;;6204423;28;20026;-81
2021/05/02 05:07:34;;;;;;;31.88;22.52;;;6.30;99.90;;;;;;6220410;28;20053;-80
2021/05/02 05:10:34;;;;;;;29.52;23.25;;;6.40;99.90;;;;;;6203934;28;20048;-79
2021/05/02 05:13:35;;;;;;;27.38;21.02;;;6.60;99.90;;;;;;6221202;28;20041;-79
2021/05/02 05:16:35;;;;;;;26.48;19.65;;;6.80;99.90;;;;;;6221673;28;20126;-80
2021/05/02 05:19:38;;;;;;;30.88;21.30;;;;;;;;;;6220112;28;20076;-80
2021/05/02 05:22:38;;;;;;;27.45;21.75;;;6.60;99.90;;;;;;6204017;28;20041;-81
2021/05/02 05:25:39;;;;;;;30.25;21.63;;;;;;;;;;6220221;28;20042;-80
2021/05/02 05:28:40;;;;;;;24.25;18.30;;;;;;;;;;6220317;28;20046;-80
2021/05/02 05:31:41;;;;;;;27.83;20.30;;;;;;;;;;6203501;28;20030;-81
2021/05/02 05:34:42;;;;;;;31.40;22.38;;;;;;;;;;6220022;28;20026;-80
2021/05/02 05:37:43;;;;;;;23.33;18.17;;;;;;;;;;6203917;28;20212;-81
2021/05/02 05:40:44;;;;;;;26.58;19.90;;;;;;;;;;6220963;28;20055;-80
2021/05/02 05:43:45;;;;;;;24.02;19.42;;;7.40;99.90;;;;;;6203710;28;20021;-81
2021/05/02 05:46:46;;;;;;;24.25;18.67;;;;;;;;;;6219865;28;20087;-80
2021/05/02 05:49:46;;;;;;;22.30;18.42;;;7.80;99.90;;;;;;6203580;28;20045;-80
2021/05/02 05:52:47;;;;;;;23.13;18.13;;;8.10;99.90;;;;;;6219734;28;20392;-81
2021/05/02 05:55:47;;;;;;;21.35;18.05;;;8.60;99.90;;;;;;6219730;28;20041;-81
2021/05/02 05:58:48;;;;;;;20.88;16.90;;;8.60;99.90;;;;;;6219144;28;20033;-80
2021/05/02 06:01:49;;;;;;;23.95;18.00;;;8.70;99.90;;;;;;6202629;28;20057;-80
2021/05/02 06:04:50;;;;;;;21.95;17.30;;;8.90;99.90;;;;;;6219564;28;20034;-80
2021/05/02 06:07:50;;;;;;;20.30;17.33;;;9.00;99.90;;;;;;6219122;28;20487;-80
2021/05/02 06:10:51;;;;;;;22.10;18.30;;;8.10;99.90;;;;;;6218900;28;20026;-81
2021/05/02 06:13:51;;;;;;;22.92;18.23;;;8.20;99.90;;;;;;6220279;28;20079;-83
2021/05/02 06:16:52;;;;;;;23.45;19.80;;;8.40;99.90;;;;;;6220658;28;20469;-81
2021/05/02 06:19:53;;;;;;;24.50;19.02;;;8.10;99.90;;;;;;6218494;28;20786;-79
2021/05/02 06:22:54;;;;;;;23.63;17.92;;;8.50;99.90;;;;;;6202117;28;20033;-81
2021/05/02 06:25:54;;;;;;;21.95;17.75;;;8.20;99.90;;;;;;6218806;28;20076;-79
2021/05/02 06:28:55;;;;;;;24.10;19.00;;;8.40;99.90;;;;;;6218864;28;20042;-80
2021/05/02 06:31:55;;;;;;;22.88;19.23;;;8.60;99.90;;;;;;6218759;28;20419;-80
2021/05/02 06:34:57;;;;;;;23.98;19.10;;;9.20;99.90;;;;;;6218397;28;20056;-81
2021/05/02 06:37:57;;;;;;;21.25;18.35;;;8.80;99.90;;;;;;6218870;28;20456;-79
2021/05/02 06:40:58;;;;;;;23.48;17.92;;;8.40;99.90;;;;;;6216881;28;20084;-79
2021/05/02 06:43:58;;;;;;;22.60;17.58;;;8.00;99.90;;;;;;6217330;28;20113;-79
2021/05/02 06:46:59;;;;;;;24.13;18.70;;;8.20;99.90;;;;;;6217095;28;20468;-81
2021/05/02 06:50:00;;;;;;;20.58;17.58;;;8.10;99.90;;;;;;6217889;28;20435;-82
2021/05/02 06:53:00;;;;;;;23.48;19.17;;;8.20;99.90;;;;;;6216168;28;20014;-80
2021/05/02 06:56:01;;;;;;;18.98;16.20;;;8.50;99.90;;;;;;6217587;28;20033;-78
2021/05/02 06:59:02;;;;;;;23.48;18.15;;;8.60;99.90;;;;;;6199860;28;20468;-79
2021/05/02 07:02:03;;;;;;;19.75;17.45;;;8.20;99.90;;;;;;6199602;28;20456;-80
2021/05/02 07:05:05;;;;;;;36.03;23.65;;;8.20;99.90;;;;;;6217973;28;20156;-79
2021/05/02 07:08:05;;;;;;;26.17;20.17;;;8.10;99.90;;;;;;6217843;28;20033;-78
2021/05/02 07:11:06;;;;;;;24.38;19.17;;;8.20;99.90;;;;;;6201363;28;20025;-78
2021/05/02 07:14:07;;;;;;;28.85;21.45;;;8.80;99.90;;;;;;6218664;28;20100;-78
2021/05/02 07:17:08;;;;;;;42.03;27.65;;;8.40;99.90;;;;;;6219476;28;20029;-80
2021/05/02 07:20:11;;;;;;;23.23;18.55;;;8.80;99.90;;;;;;6218046;28;20495;-78
2021/05/02 07:23:11;;;;;;;63.38;35.97;;;8.70;99.90;;;;;;6201470;28;20038;-83
2021/05/02 07:26:12;;;;;;;22.50;19.15;;;9.00;99.90;;;;;;6217942;28;20038;-80
2021/05/02 07:29:12;;;;;;;22.20;17.88;;;9.20;99.70;;;;;;6217167;28;20164;-79
2021/05/02 07:32:13;;;;;;;22.98;16.67;;;9.80;99.90;;;;;;6201500;28;20117;-79
2021/05/02 07:35:14;;;;;;;21.95;19.05;;;9.50;99.60;;;;;;6217423;28;20037;-81
2021/05/02 07:38:15;;;;;;;26.58;21.60;;;9.80;98.70;;;;;;6201807;28;20571;-79
2021/05/02 07:41:15;;;;;;;21.25;18.85;;;10.10;99.60;;;;;;6217206;28;20117;-79
2021/05/02 07:44:16;;;;;;;21.85;18.33;;;10.70;99.90;;;;;;6217433;28;20041;-80
2021/05/02 07:47:17;;;;;;;23.30;18.70;;;11.50;97.90;;;;;;6217399;28;20037;-79
2021/05/02 07:50:17;;;;;;;19.55;17.02;;;12.70;99.90;;;;;;6216820;28;20057;-79
2021/05/02 07:53:19;;;;;;;18.15;15.60;;;12.80;94.90;;;;;;6216877;28;20065;-78
2021/05/02 07:56:19;;;;;;;18.30;15.53;;;13.00;93.70;;;;;;6200746;28;20088;-80
2021/05/02 07:59:21;;;;;;;18.02;15.93;;;13.00;98.40;;;;;;6217232;28;20472;-78
2021/05/02 08:02:22;;;;;;;47.38;26.10;;;13.00;90.70;;;;;;6215844;28;20173;-79
2021/05/02 08:05:23;;;;;;;18.43;16.37;;;13.00;98.60;;;;;;6218758;28;20022;-81
2021/05/02 08:08:24;;;;;;;18.55;15.23;;;13.10;96.60;;;;;;6217059;28;20304;-84
2021/05/02 08:11:24;;;;;;;17.38;15.52;;;13.10;90.00;;;;;;6217239;28;20033;-82
2021/05/02 08:14:25;;;;;;;21.35;16.48;;;12.20;99.80;;;;;;6216353;28;20040;-80
2021/05/02 08:17:26;;;;;;;19.15;17.15;;;12.50;99.80;;;;;;6200721;28;20045;-80
2021/05/02 08:20:26;;;;;;;19.27;15.73;;;12.30;93.10;;;;;;6199682;28;20073;-81
2021/05/02 08:23:27;;;;;;;19.73;16.23;;;12.40;91.90;;;;;;6215090;28;20080;-81
2021/05/02 08:26:27;;;;;;;18.35;16.17;;;12.70;92.30;;;;;;6199495;28;20034;-82
2021/05/02 08:29:28;;;;;;;18.60;16.45;;;;;;;;;;6215775;28;20042;-82
2021/05/02 08:32:29;;;;;;;17.70;15.82;;;12.80;90.20;;;;;;6200187;28;20026;-78
2021/05/02 08:35:30;;;;;;;17.92;15.23;;;13.40;97.40;;;;;;6214783;28;20465;-82
2021/05/02 08:38:31;;;;;;;21.20;15.38;;;13.80;91.20;;;;;;6194324;28;20036;-81
2021/05/02 08:41:31;;;;;;;20.45;15.32;;;14.80;89.60;;;;;;6200069;28;20734;-83
2021/05/02 08:44:33;;;;;;;17.50;14.07;;;15.10;81.00;;;;;;6199930;28;20030;-83
2021/05/02 08:47:36;;;;;;;18.55;14.75;;;15.30;79.50;;;;;;6220366;28;20030;-83
2021/05/02 08:50:36;;;;;;;19.08;13.73;;;15.50;76.10;;;;;;6220487;28;20084;-83
2021/05/02 08:53:37;;;;;;;16.40;13.80;;;14.80;91.50;;;;;;6220063;28;20030;-83
2021/05/02 08:56:40;;;;;;;18.67;16.77;;;14.90;76.60;;;;;;6220816;28;20045;-82
2021/05/02 08:59:41;;;;;;;16.00;14.30;;;14.30;79.10;;;;;;6220017;28;20037;-83
2021/05/02 09:02:54;;;;;;;16.60;14.02;;;14.10;82.20;;;;;;6203529;28;20050;-83
2021/05/02 09:05:55;;;;;;;15.73;13.95;;;14.90;79.70;;;;;;6201846;28;20120;-82
2021/05/02 09:08:58;;;;;;;14.98;13.38;;;16.40;85.40;;;;;;6220259;28;20034;-83
2021/05/02 09:11:58;;;;;;;16.02;13.80;;;16.10;96.40;;;;;;6204427;28;20366;-84
2021/05/02 09:15:03;;;;;;;16.00;14.30;;;15.60;91.70;;;;;;6220366;28;20033;-83
2021/05/02 09:18:17;;;;;;;15.07;13.20;;;16.00;98.20;;;;;;6220682;28;20108;-83
2021/05/02 09:21:28;;;;;;;16.23;14.52;;;16.00;90.20;;;;;;6220569;28;20070;-82
2021/05/02 09:24:31;;;;;;;16.75;13.55;;;15.60;90.00;;;;;;6222257;28;20057;-83
2021/05/02 09:27:32;;;;;;;14.63;12.98;;;15.50;97.70;;;;;;6219892;28;20650;-83
2021/05/02 09:30:33;;;;;;;16.33;14.27;;;15.90;81.90;;;;;;6220528;28;20041;-83
2021/05/02 09:33:34;;;;;;;16.83;13.32;;;15.60;95.20;;;;;;6220393;28;20088;-83
2021/05/02 09:36:37;;;;;;;17.53;12.93;;;15.50;89.30;;;;;;6203722;28;20057;-84
2021/05/02 09:39:38;;;;;;;;;;;15.50;90.10;;;;;;6204065;28;20033;-84
2021/05/02 09:42:39;;;;;;;14.32;12.68;;;15.90;73.60;;;;;;6221506;28;19960;-83
2021/05/02 09:45:40;;;;;;;13.27;11.85;;;15.80;87.20;;;;;;6206631;28;20033;-84
2021/05/02 09:48:40;;;;;;;13.73;11.63;;;16.60;73.00;;;;;;6219527;28;20041;-84
2021/05/02 09:51:49;;;;;;;12.85;11.27;;;16.60;65.60;;;;;;6219639;28;20426;-82
2021/05/02 09:54:49;;;;;;;13.48;11.68;;;17.30;65.30;;;;;;6219642;28;20032;-83
2021/05/02 09:58:03;;;;;;;13.38;12.07;;;17.80;66.90;;;;;;6201832;28;20030;-83
2021/05/02 10:01:04;;;;;;;12.55;11.20;;;18.40;67.00;;;;;;6203248;28;20572;-84
2021/05/02 10:04:05;;;;;;;12.48;10.90;;;18.70;60.80;;;;;;6219569;28;20030;-85
2021/05/02 10:07:09;;;;;;;12.93;11.63;;;19.10;58.20;;;;;;6218883;28;20029;-87
2021/05/02 10:10:10;;;;;;;13.23;11.38;;;19.40;73.10;;;;;;6202877;28;20046;-85
2021/05/02 10:13:11;;;;;;;21.25;11.52;;;;;;;;;;6218982;28;20392;-82
2021/05/02 10:16:14;;;;;;;24.58;11.15;;;19.90;55.70;;;;;;6202684;28;20034;-81
2021/05/02 10:19:15;;;;;;;18.35;10.60;;;20.70;74.40;;;;;;6218983;28;20172;-84
2021/05/02 10:22:18;;;;;;;16.02;9.27;;;20.40;74.10;;;;;;6201901;28;20424;-83
2021/05/02 10:25:18;;;;;;;16.00;10.13;;;20.20;55.60;;;;;;6202732;28;20061;-84
2021/05/02 10:28:22;;;;;;;12.18;10.18;;;20.30;54.20;;;;;;6217749;28;20039;-83
2021/05/02 10:31:29;;;;;;;10.68;8.90;;;19.80;52.20;;;;;;6219841;28;20054;-82
2021/05/02 10:34:34;;;;;;;11.07;9.73;;;19.00;56.90;;;;;;6202965;28;20529;-87
2021/05/02 10:37:36;;;;;;;11.35;9.82;;;18.10;53.40;;;;;;6218914;28;20033;-85
2021/05/02 10:40:39;;;;;;;;;;;17.50;60.90;;;;;;6219470;28;20026;-89
2021/05/02 10:43:39;;;;;;;11.77;9.10;;;17.00;64.40;;;;;;6218940;28;20003;-84
2021/05/02 10:46:52;;;;;;;12.38;9.55;;;16.90;76.80;;;;;;6201433;28;20037;-81
2021/05/02 10:49:54;;;;;;;10.55;9.65;;;16.30;84.20;;;;;;6201891;28;20156;-82
2021/05/02 10:53:11;;;;;;;13.07;10.20;;;16.00;87.90;;;;;;6218748;28;20053;-82
2021/05/02 10:56:14;;;;;;;12.63;10.77;;;15.90;66.80;;;;;;6201945;28;20033;-83
2021/05/02 10:59:15;;;;;;;10.07;9.18;;;15.70;68.70;;;;;;6201736;28;20385;-80
2021/05/02 11:02:48;;;;;;;10.88;9.38;;;15.90;96.40;;;;;;6216969;28;20122;-81
2021/05/02 11:05:48;;;;;;;;;;;15.80;70.80;;;;;;6204128;28;20423;-80
2021/05/02 11:08:57;;;;;;;9.50;8.15;;;15.30;95.80;;;;;;6217030;28;19921;-81
2021/05/02 11:11:58;;;;;;;8.32;7.43;;;14.60;96.10;;;;;;6221549;28;20062;-80
2021/05/02 11:14:59;;;;;;;8.18;7.22;;;;;;;;;;6201501;28;20037;-81
2021/05/02 11:18:00;;;;;;;7.07;6.38;;;14.80;88.20;;;;;;6218776;28;20036;-80
2021/05/02 11:21:03;;;;;;;8.10;7.30;;;;;;;;;;6218751;28;20026;-81
2021/05/02 11:24:04;;;;;;;7.15;6.43;;;14.80;71.40;;;;;;6217076;28;20117;-81
2021/05/02 11:30:18;;;;;;;8.13;6.22;;;14.70;89.90;;;;;;6213801;28;20892;-81
2021/05/02 11:33:25;;;;;;;9.75;8.63;;;14.50;71.90;;;;;;6216694;28;20042;-81
2021/05/02 11:36:38;;;;;;;11.80;10.60;;;13.00;95.40;;;;;;6199569;28;20026;-80
2021/05/02 11:39:40;;;;;;;10.43;9.40;;;13.00;86.00;;;;;;6200666;28;20115;-81
2021/05/02 11:43:11;;;;;;;8.20;7.43;;;12.40;86.80;;;;;;6217058;28;20361;-82
2021/05/02 11:46:19;;;;;;;9.65;7.25;;;11.80;81.20;;;;;;6201677;28;20029;-81
2021/05/02 11:49:20;;;;;;;8.80;7.05;;;11.40;88.10;;;;;;6201786;28;20603;-82
2021/05/02 11:52:20;;;;;;;22.67;7.95;;;11.10;90.60;;;;;;6217560;28;20030;-82
2021/05/02 11:55:39;;;;;;;8.40;7.43;;;10.60;92.30;;;;;;6201206;28;20069;-82
2021/05/02 11:58:39;;;;;;;8.73;7.82;;;10.50;92.60;;;;;;6217254;28;20038;-82
2021/05/02 12:01:41;;;;;;;8.75;7.38;;;;;;;;;;6216672;28;20050;-83
2021/05/02 12:04:42;;;;;;;9.43;8.43;;;10.00;99.90;;;;;;6217175;28;20022;-82
2021/05/02 12:07:44;;;;;;;9.45;8.50;;;10.20;95.90;;;;;;6213392;28;20034;-83
2021/05/02 12:10:45;;;;;;;;;;;10.60;95.60;;;;;;6215566;28;20037;-81
2021/05/02 12:13:54;;;;;;;9.45;8.45;;;9.80;99.90;;;;;;6213779;28;19913;-82
2021/05/02 12:16:57;;;;;;;9.63;8.73;;;9.80;96.20;;;;;;6200797;28;20597;-83
2021/05/02 12:19:58;;;;;;;10.23;9.18;;;9.80;99.90;;;;;;6230574;28;20152;-83
2021/05/02 12:22:58;;;;;;;10.65;8.45;;;9.70;96.70;;;;;;6221232;28;20496;-83
2021/05/02 12:26:17;;;;;;;11.80;10.48;;;9.50;95.70;;;;;;6205164;28;20034;-83
2021/05/02 12:29:19;;;;;;;15.38;12.10;;;9.20;96.70;;;;;;6204552;28;20049;-81
2021/05/02 12:32:19;;;;;;;9.73;8.73;;;9.10;96.40;;;;;;6219811;28;20061;-81
2021/05/02 12:35:20;;;;;;;10.52;8.63;;;9.10;96.20;;;;;;6220708;28;20054;-82
2021/05/02 12:38:25;;;;;;;9.63;8.43;;;9.20;97.90;;;;;;6220403;28;20037;-82
2021/05/02 12:41:26;;;;;;;9.40;8.40;;;9.40;97.10;;;;;;6220851;28;20085;-82
2021/05/02 12:44:28;;;;;;;10.60;8.82;;;9.10;97.40;;;;;;6221105;28;20026;-83
2021/05/02 12:47:30;;;;;;;8.60;7.70;;;9.40;97.90;;;;;;6220575;28;20026;-80
2021/05/02 12:50:38;;;;;;;9.15;8.13;;;9.20;98.00;;;;;;6204968;28;20061;-81
2021/05/02 12:53:40;;;;;;;10.00;7.88;;;9.20;97.30;;;;;;6220935;28;20065;-83
2021/05/02 12:56:42;;;;;;;8.00;7.30;;;9.40;99.90;;;;;;6204624;28;20037;-81
2021/05/02 13:02:50;;;;;;;8.05;7.25;;;;;;;;;;6220874;28;20415;-82
2021/05/02 13:06:01;;;;;;;8.20;7.30;;;9.60;99.90;;;;;;6203402;28;20388;-81
2021/05/02 13:09:03;;;;;;;8.90;6.75;;;10.00;99.90;;;;;;6204126;28;20034;-82
2021/05/02 13:12:04;;;;;;;7.90;7.10;;;10.40;99.90;;;;;;6220590;28;20026;-82
2021/05/02 13:15:07;;;;;;;13.23;7.68;;;10.50;99.90;;;;;;6203955;28;20058;-84
2021/05/02 13:18:15;;;;;;;6.97;6.28;;;11.00;99.90;;;;;;6220261;28;20026;-85
2021/05/02 13:21:23;;;;;;;7.28;6.57;;;10.80;99.90;;;;;;6221551;28;20076;-83
2021/05/02 13:24:23;;;;;;;8.40;6.75;;;11.40;99.90;;;;;;6203912;28;20029;-84
2021/05/02 13:27:39;;;;;;;8.10;6.45;;;11.40;99.90;;;;;;6203667;28;20100;-84
2021/05/02 13:30:40;;;;;;;6.40;5.75;;;11.90;93.30;;;;;;6220387;28;20046;-83
2021/05/02 13:33:41;;;;;;;7.50;6.30;;;;;;;;;;6219756;28;20034;-84
2021/05/02 13:36:44;;;;;;;7.57;6.78;;;12.10;89.40;;;;;;6219872;28;20025;-83
2021/05/02 13:39:44;;;;;;;6.78;6.00;;;12.30;95.90;;;;;;6219311;28;20034;-84
2021/05/02 13:42:45;;;;;;;7.03;6.32;;;12.50;97.00;;;;;;6220011;28;20511;-81
2021/05/02 13:45:45;;;;;;;7.82;6.10;;;12.80;97.60;;;;;;6203570;28;20121;-83
2021/05/02 13:48:46;;;;;;;6.95;6.25;;;12.60;90.10;;;;;;6203521;28;20460;-84
2021/05/02 13:52:02;;;;;;;7.15;6.55;;;12.30;87.00;;;;;;6202572;28;20030;-83
2021/05/02 13:55:22;;;;;;;6.47;5.88;;;12.10;87.20;;;;;;6219199;28;20105;-83
2021/05/02 13:58:22;;;;;;;21.30;11.73;;;12.00;93.50;;;;;;6218851;28;20104;-86
2021/05/02 14:01:26;;;;;;;9.07;6.65;;;12.30;88.30;;;;;;6217618;28;20111;-84
2021/05/02 14:04:26;;;;;;;8.23;6.43;;;12.30;98.90;;;;;;6199412;28;20041;-84
2021/05/02 14:07:27;;;;;;;7.25;6.45;;;12.30;91.20;;;;;;6200341;28;20447;-84
2021/05/02 14:10:29;;;;;;;8.43;7.63;;;12.20;98.20;;;;;;6218971;28;20044;-84
2021/05/02 14:13:30;;;;;;;9.02;7.93;;;;;;;;;;6202910;28;20080;-84
2021/05/02 14:16:30;;;;;;;8.70;7.45;;;11.90;99.90;;;;;;6202245;28;20045;-84
2021/05/02 14:19:31;;;;;;;9.93;8.93;;;11.90;99.50;;;;;;6202024;28;20484;-85
2021/05/02 14:22:32;;;;;;;10.70;9.52;;;;;;;;;;6202554;28;20104;-84
2021/05/02 14:25:33;;;;;;;10.88;9.63;;;12.00;90.20;;;;;;6202615;28;20041;-83
2021/05/02 14:28:37;;;;;;;17.80;9.98;;;12.00;93.50;;;;;;6201738;28;20527;-86
2021/05/02 14:31:38;;;;;;;16.15;9.05;;;12.40;94.60;;;;;;6218606;28;20477;-83
2021/05/02 14:34:38;;;;;;;15.27;9.35;;;12.30;94.30;;;;;;6202568;28;20068;-81
2021/05/02 14:37:39;;;;;;;9.98;8.18;;;12.10;95.50;;;;;;6217178;28;20037;-85
2021/05/02 14:40:40;;;;;;;28.30;10.82;;;12.90;91.40;;;;;;6218386;28;20038;-80
2021/05/02 14:43:41;;;;;;;9.60;8.63;;;;;;;;;;6202477;28;20088;-83
2021/05/02 14:46:41;;;;;;;9.50;8.60;;;13.40;83.40;;;;;;6201110;28;20052;-82
2021/05/02 14:49:42;;;;;;;9.77;8.88;;;13.30;93.00;;;;;;6218509;28;20120;-82
2021/05/02 14:52:44;;;;;;;11.95;10.13;;;;;;;;;;6218003;28;20029;-82
2021/05/02 14:55:44;;;;;;;11.30;10.07;;;13.20;82.80;;;;;;6219784;28;20026;-82
2021/05/02 14:58:45;;;;;;;10.93;9.88;;;12.50;95.50;;;;;;6201861;28;20072;-81
2021/05/02 15:01:46;;;;;;;11.98;10.68;;;12.50;85.70;;;;;;6217372;28;20499;-80
2021/05/02 15:04:47;;;;;;;12.52;10.60;;;12.30;94.90;;;;;;6200938;28;20034;-80
2021/05/02 15:07:47;;;;;;;11.45;9.93;;;12.40;96.30;;;;;;6214569;28;20376;-79
2021/05/02 15:10:48;;;;;;;11.88;10.52;;;12.70;95.60;;;;;;6193849;28;20048;-79
2021/05/02 15:13:49;;;;;;;9.95;8.95;;;13.00;84.10;;;;;;6199135;28;20040;-78
2021/05/02 15:16:49;;;;;;;10.65;9.55;;;12.90;81.40;;;;;;6216974;28;20046;-78
2021/05/02 15:19:50;;;;;;;12.98;10.93;;;12.70;82.30;;;;;;6216793;28;20022;-79
2021/05/02 15:22:51;;;;;;;10.30;8.90;;;;;;;;;;6217082;28;20034;-78
2021/05/02 15:25:52;;;;;;;10.60;8.82;;;;;;;;;;6216584;28;20087;-78
2021/05/02 15:28:52;;;;;;;11.27;9.13;;;12.00;99.60;;;;;;6201198;28;20045;-79
2021/05/02 15:31:53;;;;;;;20.33;11.80;;;11.80;99.90;;;;;;6218771;28;20456;-82
2021/05/02 15:34:54;;;;;;;10.65;9.63;;;12.10;99.90;;;;;;6217946;28;20030;-80
2021/05/02 15:37:55;;;;;;;9.07;8.18;;;;;;;;;;6200669;28;20121;-82
2021/05/02 15:44:21;;;;;;;9.63;8.25;;;;;;;;;;6209919;28;20038;-79
2021/05/02 15:47:22;;;;;;;17.15;11.02;;;;;;;;;;6218731;28;20429;-77
2021/05/02 15:50:23;;;;;;;8.35;7.55;;;;;;;;;;6218106;28;20037;-78
2021/05/02 15:53:24;;;;;;;8.02;7.22;;;12.80;94.10;;;;;;6212671;28;20026;-78
2021/05/02 15:56:24;;;;;;;7.75;7.05;;;12.80;93.50;;;;;;6218798;28;20503;-81
2021/05/02 15:59:25;;;;;;;10.43;7.30;;;12.70;84.70;;;;;;6220226;28;20029;-79